createdAt,value
2017-11-14T00:00:03.268Z,89.39
2017-11-14T00:01:05.079Z,89.48
2017-11-14T00:02:06.954Z,88.62
2017-11-14T00:03:08.835Z,88.53
2017-11-14T00:04:10.711Z,88.72
2017-11-14T00:05:24.901Z,87.87
2017-11-14T00:06:26.782Z,88.24
2017-11-14T00:07:28.657Z,88.06
2017-11-14T00:08:30.532Z,87.87
2017-11-14T00:09:32.345Z,87.77
2017-11-14T00:10:34.158Z,88.06
2017-11-14T00:11:36.035Z,88.24
2017-11-14T00:12:37.912Z,87.58
2017-11-14T00:13:39.800Z,87.11
2017-11-14T00:14:53.932Z,87.58
2017-11-14T00:15:55.806Z,87.68
2017-11-14T00:16:57.688Z,87.68
2017-11-14T00:17:59.564Z,88.24
2017-11-14T00:19:01.381Z,88.06
2017-11-14T00:20:03.194Z,87.96
2017-11-14T00:21:05.073Z,87.77
2017-11-14T00:22:06.951Z,88.43
2017-11-14T00:23:08.829Z,88.81
2017-11-14T00:24:22.972Z,88.34
2017-11-14T00:25:24.848Z,88.77
2017-11-14T00:26:26.728Z,88.96
2017-11-14T00:27:28.604Z,89.15
2017-11-14T00:28:30.417Z,89.43
2017-11-14T00:29:32.231Z,89.43
2017-11-14T00:30:34.108Z,88.96
2017-11-14T00:31:35.984Z,89.20
2017-11-14T00:32:37.860Z,89.29
2017-11-14T00:33:52.005Z,89.29
2017-11-14T00:34:53.880Z,88.72
2017-11-14T00:35:55.760Z,88.72
2017-11-14T00:36:57.637Z,88.34
2017-11-14T00:37:59.449Z,88.43
2017-11-14T00:39:01.260Z,88.62
2017-11-14T00:40:03.136Z,88.62
2017-11-14T00:41:05.012Z,88.53
2017-11-14T00:42:06.896Z,88.34
2017-11-14T00:43:21.080Z,88.72
2017-11-14T00:44:22.955Z,88.81
2017-11-14T00:45:24.832Z,88.81
2017-11-14T00:46:26.710Z,88.72
2017-11-14T00:47:28.523Z,88.81
2017-11-14T00:48:30.333Z,88.91
2017-11-14T00:49:32.209Z,88.91
2017-11-14T00:50:34.087Z,88.15
2017-11-14T00:51:35.959Z,88.43
2017-11-14T00:52:50.104Z,88.58
2017-11-14T00:53:51.978Z,88.58
2017-11-14T00:54:53.858Z,88.77
2017-11-14T00:55:55.734Z,88.48
2017-11-14T00:56:57.551Z,88.39
2017-11-14T00:57:59.358Z,88.29
2017-11-14T00:59:01.236Z,88.48
2017-11-14T01:00:03.113Z,88.68
2017-11-14T01:01:04.990Z,88.20
2017-11-14T01:02:19.134Z,88.29
2017-11-14T01:03:21.021Z,88.58
2017-11-14T01:04:22.889Z,88.48
2017-11-14T01:05:24.764Z,88.20
2017-11-14T01:06:26.578Z,88.39
2017-11-14T01:07:28.390Z,88.68
2017-11-14T01:08:30.266Z,88.58
2017-11-14T01:09:32.144Z,88.29
2017-11-14T01:10:34.019Z,88.68
2017-11-14T01:11:48.166Z,88.68
2017-11-14T01:12:50.041Z,88.48
2017-11-14T01:13:51.922Z,88.48
2017-11-14T01:14:53.800Z,88.39
2017-11-14T01:15:55.610Z,88.58
2017-11-14T01:16:57.418Z,88.58
2017-11-14T01:17:59.294Z,88.68
2017-11-14T01:19:01.171Z,88.39
2017-11-14T01:20:03.047Z,88.48
2017-11-14T01:21:17.193Z,88.29
2017-11-14T01:22:19.066Z,88.29
2017-11-14T01:23:20.946Z,88.87
2017-11-14T01:24:22.822Z,88.77
2017-11-14T01:25:24.633Z,88.68
2017-11-14T01:26:26.442Z,89.06
2017-11-14T01:27:28.319Z,89.58
2017-11-14T01:28:30.194Z,89.86
2017-11-14T01:29:32.071Z,90.91
2017-11-14T01:30:46.216Z,90.62
2017-11-14T01:31:48.089Z,91.47
2017-11-14T01:32:49.964Z,91.47
2017-11-14T01:33:51.841Z,91.47
2017-11-14T01:34:53.653Z,91.19
2017-11-14T01:35:55.463Z,91.28
2017-11-14T01:36:57.339Z,91.38
2017-11-14T01:37:59.217Z,91.47
2017-11-14T01:39:01.091Z,92.04
2017-11-14T01:40:15.239Z,91.85
2017-11-14T01:41:17.119Z,92.14
2017-11-14T01:42:18.996Z,92.71
2017-11-14T01:43:20.871Z,92.28
2017-11-14T01:44:22.682Z,92.71
2017-11-14T01:45:24.497Z,93.04
2017-11-14T01:46:26.368Z,93.08
2017-11-14T01:47:28.243Z,92.85
2017-11-14T01:48:30.118Z,92.94
2017-11-14T01:49:44.259Z,93.08
2017-11-14T01:50:46.134Z,92.80
2017-11-14T01:51:48.012Z,93.32
2017-11-14T01:52:49.887Z,93.04
2017-11-14T01:53:51.702Z,93.18
2017-11-14T01:54:53.510Z,93.08
2017-11-14T01:55:55.387Z,92.90
2017-11-14T01:56:57.263Z,92.33
2017-11-14T01:57:59.159Z,92.71
2017-11-14T01:59:13.284Z,93.08
2017-11-14T02:00:15.162Z,92.71
2017-11-14T02:01:17.041Z,92.71
2017-11-14T02:02:18.916Z,92.61
2017-11-14T02:03:20.729Z,92.61
2017-11-14T02:04:22.541Z,92.71
2017-11-14T02:05:24.423Z,92.23
2017-11-14T02:06:26.302Z,92.04
2017-11-14T02:07:28.179Z,91.47
2017-11-14T02:08:42.323Z,92.04
2017-11-14T02:09:44.197Z,92.33
2017-11-14T02:10:46.082Z,92.04
2017-11-14T02:11:47.956Z,92.04
2017-11-14T02:12:49.765Z,91.66
2017-11-14T02:13:51.574Z,91.09
2017-11-14T02:14:53.451Z,91.47
2017-11-14T02:15:55.330Z,90.43
2017-11-14T02:16:57.206Z,90.24
2017-11-14T02:18:11.353Z,90.24
2017-11-14T02:19:13.227Z,90.24
2017-11-14T02:20:15.107Z,89.86
2017-11-14T02:21:16.983Z,89.67
2017-11-14T02:22:18.795Z,90.05
2017-11-14T02:23:20.604Z,90.24
2017-11-14T02:24:22.481Z,90.24
2017-11-14T02:25:24.358Z,89.77
2017-11-14T02:26:26.232Z,89.86
2017-11-14T02:27:40.384Z,89.39
2017-11-14T02:28:42.252Z,88.82
2017-11-14T02:29:44.135Z,88.96
2017-11-14T02:30:46.010Z,89.34
2017-11-14T02:31:47.826Z,88.77
2017-11-14T02:32:49.653Z,88.39
2017-11-14T02:33:51.517Z,88.58
2017-11-14T02:34:53.388Z,88.39
2017-11-14T02:35:55.269Z,88.20
2017-11-14T02:37:09.413Z,87.73
2017-11-14T02:38:11.292Z,87.25
2017-11-14T02:39:13.170Z,87.58
2017-11-14T02:40:15.043Z,87.49
2017-11-14T02:41:16.859Z,87.39
2017-11-14T02:42:18.669Z,87.11
2017-11-14T02:43:20.543Z,86.44
2017-11-14T02:44:22.420Z,86.82
2017-11-14T02:45:24.296Z,86.16
2017-11-14T02:46:38.443Z,86.25
2017-11-14T02:47:40.317Z,85.78
2017-11-14T02:48:42.193Z,86.25
2017-11-14T02:49:44.070Z,86.30
2017-11-14T02:50:45.885Z,86.21
2017-11-14T02:51:47.707Z,86.35
2017-11-14T02:52:49.572Z,86.11
2017-11-14T02:53:51.464Z,86.25
2017-11-14T02:54:53.326Z,86.16
2017-11-14T02:56:07.475Z,85.97
2017-11-14T02:57:09.344Z,85.87
2017-11-14T02:58:11.219Z,86.07
2017-11-14T02:59:13.096Z,85.87
2017-11-14T03:00:14.911Z,85.97
2017-11-14T03:01:16.721Z,85.97
2017-11-14T03:02:18.595Z,86.16
2017-11-14T03:03:20.432Z,86.16
2017-11-14T03:04:22.246Z,86.07
2017-11-14T03:05:36.395Z,86.25
2017-11-14T03:06:38.268Z,86.25
2017-11-14T03:07:40.145Z,86.25
2017-11-14T03:08:42.018Z,85.97
2017-11-14T03:09:43.832Z,86.25
2017-11-14T03:10:45.645Z,86.07
2017-11-14T03:11:47.525Z,85.97
2017-11-14T03:12:49.395Z,86.25
2017-11-14T03:13:51.270Z,85.87
2017-11-14T03:15:05.416Z,85.59
2017-11-14T03:16:07.295Z,85.87
2017-11-14T03:17:09.172Z,85.97
2017-11-14T03:18:11.047Z,85.78
2017-11-14T03:19:12.859Z,85.78
2017-11-14T03:20:14.672Z,85.78
2017-11-14T03:21:16.547Z,85.87
2017-11-14T03:22:18.424Z,85.97
2017-11-14T03:23:20.300Z,85.40
2017-11-14T03:24:34.450Z,85.59
2017-11-14T03:25:36.325Z,85.30
2017-11-14T03:26:38.201Z,85.63
2017-11-14T03:27:40.074Z,85.68
2017-11-14T03:28:41.890Z,85.53
2017-11-14T03:29:43.701Z,85.44
2017-11-14T03:30:45.577Z,85.44
2017-11-14T03:31:47.455Z,85.35
2017-11-14T03:32:49.343Z,85.53
2017-11-14T03:34:03.477Z,85.63
2017-11-14T03:35:05.353Z,85.44
2017-11-14T03:36:07.231Z,85.53
2017-11-14T03:37:09.111Z,85.63
2017-11-14T03:38:10.925Z,85.53
2017-11-14T03:39:12.738Z,85.53
2017-11-14T03:40:14.614Z,85.53
2017-11-14T03:41:16.493Z,85.44
2017-11-14T03:42:18.373Z,85.63
2017-11-14T03:43:32.519Z,85.44
2017-11-14T03:44:34.433Z,85.72
2017-11-14T03:45:36.374Z,85.72
2017-11-14T03:46:38.259Z,85.35
2017-11-14T03:47:40.074Z,85.44
2017-11-14T03:48:41.888Z,85.35
2017-11-14T03:49:43.764Z,85.16
2017-11-14T03:50:45.645Z,85.44
2017-11-14T03:51:47.517Z,85.16
2017-11-14T03:53:01.666Z,85.35
2017-11-14T03:54:03.544Z,85.44
2017-11-14T03:55:05.424Z,85.35
2017-11-14T03:56:07.299Z,85.72
2017-11-14T03:57:09.120Z,85.72
2017-11-14T03:58:10.927Z,85.53
2017-11-14T03:59:12.808Z,85.35
2017-11-14T04:00:14.691Z,85.53
2017-11-14T04:01:16.571Z,85.53
2017-11-14T04:02:30.765Z,85.25
2017-11-14T04:03:32.641Z,85.72
2017-11-14T04:04:34.518Z,85.72
2017-11-14T04:05:36.396Z,85.44
2017-11-14T04:06:38.216Z,85.72
2017-11-14T04:07:40.054Z,85.40
2017-11-14T04:08:41.930Z,85.49
2017-11-14T04:09:43.809Z,85.11
2017-11-14T04:10:45.686Z,86.07
2017-11-14T04:11:59.834Z,85.97
2017-11-14T04:13:01.710Z,85.97
2017-11-14T04:14:03.586Z,85.82
2017-11-14T04:15:05.464Z,85.63
2017-11-14T04:16:07.276Z,85.72
2017-11-14T04:17:09.087Z,85.82
2017-11-14T04:18:10.963Z,86.01
2017-11-14T04:19:12.838Z,85.53
2017-11-14T04:20:14.718Z,85.11
2017-11-14T04:21:28.916Z,85.72
2017-11-14T04:22:30.791Z,85.40
2017-11-14T04:23:32.670Z,85.59
2017-11-14T04:24:34.544Z,85.87
2017-11-14T04:25:36.359Z,85.87
2017-11-14T04:26:38.171Z,85.59
2017-11-14T04:27:40.047Z,86.16
2017-11-14T04:28:41.923Z,86.07
2017-11-14T04:29:43.799Z,86.35
2017-11-14T04:30:57.945Z,86.35
2017-11-14T04:31:59.821Z,86.54
2017-11-14T04:33:01.699Z,87.11
2017-11-14T04:34:03.574Z,87.20
2017-11-14T04:35:05.389Z,87.11
2017-11-14T04:36:07.199Z,86.16
2017-11-14T04:37:09.034Z,86.44
2017-11-14T04:38:10.848Z,87.01
2017-11-14T04:39:12.660Z,86.63
2017-11-14T04:40:26.856Z,86.91
2017-11-14T04:41:28.730Z,86.35
2017-11-14T04:42:30.630Z,86.63
2017-11-14T04:43:32.487Z,86.44
2017-11-14T04:44:34.303Z,87.30
2017-11-14T04:45:36.116Z,87.39
2017-11-14T04:46:37.999Z,87.49
2017-11-14T04:47:39.870Z,87.49
2017-11-14T04:48:41.749Z,87.58
2017-11-14T04:49:55.945Z,88.01
2017-11-14T04:50:57.820Z,88.87
2017-11-14T04:51:59.697Z,88.58
2017-11-14T04:53:01.573Z,89.15
2017-11-14T04:54:03.391Z,89.34
2017-11-14T04:55:05.203Z,89.53
2017-11-14T04:56:07.083Z,89.43
2017-11-14T04:57:08.957Z,89.81
2017-11-14T04:58:10.838Z,90.29
2017-11-14T04:59:24.984Z,89.81
2017-11-14T05:00:26.858Z,90.00
2017-11-14T05:01:28.734Z,90.10
2017-11-14T05:02:30.608Z,89.91
2017-11-14T05:03:32.422Z,90.10
2017-11-14T05:04:34.236Z,90.38
2017-11-14T05:05:36.109Z,90.00
2017-11-14T05:06:37.987Z,90.10
2017-11-14T05:07:39.862Z,89.72
2017-11-14T05:08:54.007Z,89.91
2017-11-14T05:09:55.883Z,89.53
2017-11-14T05:10:57.771Z,89.34
2017-11-14T05:11:59.632Z,89.15
2017-11-14T05:13:01.446Z,89.06
2017-11-14T05:14:03.264Z,89.29
2017-11-14T05:15:05.133Z,89.06
2017-11-14T05:16:07.008Z,89.29
2017-11-14T05:17:08.884Z,89.06
2017-11-14T05:18:23.031Z,89.39
2017-11-14T05:19:24.905Z,88.72
2017-11-14T05:20:26.782Z,88.62
2017-11-14T05:21:28.658Z,89.00
2017-11-14T05:22:30.470Z,89.20
2017-11-14T05:23:32.284Z,89.10
2017-11-14T05:24:34.161Z,89.20
2017-11-14T05:25:36.039Z,89.25
2017-11-14T05:26:37.914Z,89.15
2017-11-14T05:27:52.061Z,89.20
2017-11-14T05:28:53.938Z,89.10
2017-11-14T05:29:55.818Z,89.10
2017-11-14T05:30:57.690Z,89.10
2017-11-14T05:31:59.504Z,89.20
2017-11-14T05:33:01.314Z,89.29
2017-11-14T05:34:03.197Z,88.62
2017-11-14T05:35:05.071Z,88.91
2017-11-14T05:36:06.948Z,88.81
2017-11-14T05:37:21.123Z,88.62
2017-11-14T05:38:22.975Z,89.48
2017-11-14T05:39:24.854Z,88.62
2017-11-14T05:40:26.727Z,88.43
2017-11-14T05:41:28.541Z,88.43
2017-11-14T05:42:30.353Z,88.81
2017-11-14T05:43:32.229Z,89.25
2017-11-14T05:44:34.103Z,89.72
2017-11-14T05:45:35.983Z,90.10
2017-11-14T05:46:50.129Z,90.29
2017-11-14T05:47:52.007Z,90.57
2017-11-14T05:48:53.882Z,90.67
2017-11-14T05:49:55.756Z,90.48
2017-11-14T05:50:57.569Z,90.67
2017-11-14T05:51:59.382Z,90.67
2017-11-14T05:53:01.256Z,90.67
2017-11-14T05:54:03.134Z,90.67
2017-11-14T05:55:05.011Z,90.29
2017-11-14T05:56:19.163Z,89.81
2017-11-14T05:57:21.036Z,90.67
2017-11-14T05:58:22.918Z,90.57
2017-11-14T05:59:24.793Z,90.95
2017-11-14T06:00:26.609Z,90.57
2017-11-14T06:01:28.422Z,90.48
2017-11-14T06:02:30.299Z,90.38
2017-11-14T06:03:32.175Z,90.14
2017-11-14T06:04:34.055Z,90.24
2017-11-14T06:05:48.201Z,89.86
2017-11-14T06:06:50.076Z,89.76
2017-11-14T06:07:51.955Z,89.29
2017-11-14T06:08:53.834Z,89.29
2017-11-14T06:09:55.651Z,89.67
2017-11-14T06:10:57.469Z,89.86
2017-11-14T06:11:59.347Z,89.67
2017-11-14T06:13:01.228Z,89.86
2017-11-14T06:14:03.106Z,89.76
2017-11-14T06:15:17.256Z,89.48
2017-11-14T06:16:19.133Z,90.33
2017-11-14T06:17:21.015Z,90.05
2017-11-14T06:18:22.892Z,90.33
2017-11-14T06:19:24.712Z,90.43
2017-11-14T06:20:26.531Z,90.14
2017-11-14T06:21:28.408Z,89.95
2017-11-14T06:22:30.288Z,89.91
2017-11-14T06:23:32.167Z,90.52
2017-11-14T06:24:46.316Z,90.48
2017-11-14T06:25:48.196Z,90.67
2017-11-14T06:26:50.075Z,90.86
2017-11-14T06:27:51.955Z,90.57
2017-11-14T06:28:53.773Z,90.57
2017-11-14T06:29:55.587Z,90.57
2017-11-14T06:30:57.468Z,91.33
2017-11-14T06:31:59.348Z,91.33
2017-11-14T06:33:01.227Z,91.33
2017-11-14T06:34:15.375Z,92.09
2017-11-14T06:35:17.253Z,92.38
2017-11-14T06:36:19.144Z,91.90
2017-11-14T06:37:21.015Z,92.18
2017-11-14T06:38:22.830Z,91.90
2017-11-14T06:39:24.648Z,92.18
2017-11-14T06:40:26.533Z,91.99
2017-11-14T06:41:28.409Z,91.61
2017-11-14T06:42:30.286Z,91.33
2017-11-14T06:43:44.466Z,91.33
2017-11-14T06:44:46.343Z,91.52
2017-11-14T06:45:48.226Z,91.38
2017-11-14T06:46:50.100Z,91.38
2017-11-14T06:47:51.915Z,91.00
2017-11-14T06:48:53.734Z,91.09
2017-11-14T06:49:55.620Z,91.00
2017-11-14T06:50:57.491Z,91.09
2017-11-14T06:51:59.372Z,90.71
2017-11-14T06:53:13.523Z,91.09
2017-11-14T06:54:15.402Z,91.00
2017-11-14T06:55:17.282Z,91.00
2017-11-14T06:56:19.161Z,90.90
2017-11-14T06:57:20.983Z,90.71
2017-11-14T06:58:22.831Z,90.52
2017-11-14T06:59:24.718Z,90.81
2017-11-14T07:00:26.587Z,90.52
2017-11-14T07:01:28.470Z,90.81
2017-11-14T07:02:42.671Z,90.71
2017-11-14T07:03:44.549Z,90.52
2017-11-14T07:04:46.430Z,90.09
2017-11-14T07:05:48.313Z,90.00
2017-11-14T07:06:50.132Z,89.81
2017-11-14T07:07:51.946Z,89.90
2017-11-14T07:08:53.830Z,89.14
2017-11-14T07:09:55.713Z,89.43
2017-11-14T07:10:57.598Z,89.53
2017-11-14T07:12:11.806Z,89.43
2017-11-14T07:13:13.686Z,89.90
2017-11-14T07:14:15.565Z,89.81
2017-11-14T07:15:17.452Z,90.00
2017-11-14T07:16:19.268Z,89.86
2017-11-14T07:17:21.083Z,89.86
2017-11-14T07:18:22.962Z,90.90
2017-11-14T07:19:24.842Z,91.00
2017-11-14T07:20:26.727Z,90.81
2017-11-14T07:21:40.881Z,90.62
2017-11-14T07:22:42.758Z,91.00
2017-11-14T07:23:44.658Z,90.81
2017-11-14T07:24:46.539Z,90.81
2017-11-14T07:25:48.355Z,90.81
2017-11-14T07:26:50.171Z,90.90
2017-11-14T07:27:52.052Z,90.90
2017-11-14T07:28:53.934Z,91.00
2017-11-14T07:29:55.822Z,91.38
2017-11-14T07:31:10.026Z,91.38
2017-11-14T07:32:11.901Z,91.19
2017-11-14T07:33:13.788Z,90.95
2017-11-14T07:34:15.666Z,91.04
2017-11-14T07:35:17.488Z,90.38
2017-11-14T07:36:19.317Z,90.00
2017-11-14T07:37:21.192Z,90.19
2017-11-14T07:38:23.069Z,89.81
2017-11-14T07:39:24.955Z,89.81
2017-11-14T07:40:39.117Z,90.28
2017-11-14T07:41:40.997Z,90.28
2017-11-14T07:42:42.881Z,89.72
2017-11-14T07:43:44.767Z,89.72
2017-11-14T07:44:46.583Z,89.72
2017-11-14T07:45:48.404Z,89.81
2017-11-14T07:46:50.286Z,90.09
2017-11-14T07:47:52.230Z,90.57
2017-11-14T07:48:54.092Z,90.71
2017-11-14T07:50:08.240Z,90.76
2017-11-14T07:51:10.115Z,91.42
2017-11-14T07:52:12.001Z,91.38
2017-11-14T07:53:13.877Z,91.80
2017-11-14T07:54:15.695Z,92.14
2017-11-14T07:55:17.532Z,92.23
2017-11-14T07:56:19.409Z,92.23
2017-11-14T07:57:21.248Z,91.94
2017-11-14T07:58:23.093Z,92.23
2017-11-14T07:59:37.222Z,92.80
2017-11-14T08:00:39.103Z,93.27
2017-11-14T08:01:40.986Z,92.99
2017-11-14T08:02:42.868Z,93.37
2017-11-14T08:03:44.684Z,93.18
2017-11-14T08:04:46.503Z,93.56
2017-11-14T08:05:48.388Z,93.65
2017-11-14T08:06:50.271Z,93.75
2017-11-14T08:07:52.151Z,94.60
2017-11-14T08:09:06.305Z,94.32
2017-11-14T08:10:08.184Z,94.32
2017-11-14T08:11:10.067Z,94.32
2017-11-14T08:12:11.946Z,94.32
2017-11-14T08:13:13.765Z,94.03
2017-11-14T08:14:15.583Z,94.03
2017-11-14T08:15:17.465Z,93.46
2017-11-14T08:16:19.352Z,93.18
2017-11-14T08:17:21.232Z,92.71
2017-11-14T08:18:35.389Z,93.18
2017-11-14T08:19:37.266Z,92.99
2017-11-14T08:20:39.146Z,93.46
2017-11-14T08:21:41.025Z,93.37
2017-11-14T08:22:42.844Z,93.27
2017-11-14T08:23:44.661Z,92.56
2017-11-14T08:24:46.542Z,92.18
2017-11-14T08:25:48.462Z,92.09
2017-11-14T08:26:50.319Z,91.61
2017-11-14T08:28:04.471Z,90.76
2017-11-14T08:29:06.362Z,90.61
2017-11-14T08:30:08.233Z,90.52
2017-11-14T08:31:10.114Z,89.76
2017-11-14T08:32:11.935Z,89.38
2017-11-14T08:33:13.749Z,88.71
2017-11-14T08:34:15.665Z,88.71
2017-11-14T08:35:17.518Z,88.81
2017-11-14T08:36:19.402Z,88.62
2017-11-14T08:37:33.605Z,88.85
2017-11-14T08:38:35.488Z,88.28
2017-11-14T08:39:37.372Z,88.28
2017-11-14T08:40:39.257Z,87.34
2017-11-14T08:41:41.078Z,87.24
2017-11-14T08:42:42.895Z,87.52
2017-11-14T08:43:44.778Z,86.57
2017-11-14T08:44:46.659Z,86.86
2017-11-14T08:45:48.842Z,86.29
2017-11-14T08:47:03.015Z,86.57
2017-11-14T08:48:04.897Z,86.86
2017-11-14T08:49:06.776Z,86.76
2017-11-14T08:50:08.658Z,86.47
2017-11-14T08:51:10.478Z,86.19
2017-11-14T08:52:12.301Z,86.05
2017-11-14T08:53:14.179Z,85.38
2017-11-14T08:54:16.065Z,85.57
2017-11-14T08:55:17.951Z,85.10
2017-11-14T08:56:32.107Z,85.00
2017-11-14T08:57:34.006Z,84.81
2017-11-14T08:58:35.874Z,84.14
2017-11-14T08:59:37.757Z,83.67
2017-11-14T09:00:39.578Z,83.95
2017-11-14T09:01:41.397Z,83.48
2017-11-14T09:02:43.279Z,83.58
2017-11-14T09:03:45.292Z,83.23
2017-11-14T09:04:47.147Z,83.23
2017-11-14T09:06:01.304Z,82.09
2017-11-14T09:07:03.183Z,81.90
2017-11-14T09:08:05.075Z,82.19
2017-11-14T09:09:06.949Z,82.86
2017-11-14T09:10:08.770Z,82.19
2017-11-14T09:11:10.591Z,81.81
2017-11-14T09:12:12.473Z,81.43
2017-11-14T09:13:14.358Z,80.95
2017-11-14T09:14:16.254Z,80.90
2017-11-14T09:15:30.397Z,80.04
2017-11-14T09:16:32.277Z,79.94
2017-11-14T09:17:34.162Z,79.66
2017-11-14T09:18:36.044Z,79.09
2017-11-14T09:19:37.868Z,78.80
2017-11-14T09:20:39.684Z,78.38
2017-11-14T09:21:41.569Z,78.38
2017-11-14T09:22:43.457Z,79.81
2017-11-14T09:23:45.348Z,79.72
2017-11-14T09:24:59.548Z,79.81
2017-11-14T09:26:01.434Z,80.47
2017-11-14T09:27:03.318Z,80.57
2017-11-14T09:28:05.202Z,79.72
2017-11-14T09:29:07.023Z,79.72
2017-11-14T09:30:08.844Z,79.62
2017-11-14T09:31:10.727Z,78.86
2017-11-14T09:32:12.613Z,78.71
2017-11-14T09:33:14.495Z,78.10
2017-11-14T09:34:28.671Z,78.33
2017-11-14T09:35:30.545Z,78.23
2017-11-14T09:36:32.427Z,78.14
2017-11-14T09:37:34.311Z,77.62
2017-11-14T09:38:36.133Z,77.91
2017-11-14T09:39:38.019Z,78.48
2017-11-14T09:40:40.089Z,77.43
2017-11-14T09:41:42.086Z,77.62
2017-11-14T09:42:43.965Z,77.81
2017-11-14T09:43:58.125Z,77.53
2017-11-14T09:45:00.001Z,77.66
2017-11-14T09:46:01.887Z,77.56
2017-11-14T09:47:03.770Z,77.47
2017-11-14T09:48:05.592Z,77.47
2017-11-14T09:49:07.563Z,76.71
2017-11-14T09:50:09.528Z,76.23
2017-11-14T09:51:11.511Z,76.42
2017-11-14T09:52:13.516Z,76.86
2017-11-14T09:53:27.911Z,77.05
2017-11-14T09:54:29.921Z,77.47
2017-11-14T09:55:31.808Z,77.09
2017-11-14T09:56:33.687Z,76.61
2017-11-14T09:57:35.506Z,76.14
2017-11-14T09:58:37.331Z,76.23
2017-11-14T09:59:39.212Z,76.14
2017-11-14T10:00:41.096Z,76.14
2017-11-14T10:01:42.981Z,76.20
2017-11-14T10:02:57.139Z,76.39
2017-11-14T10:03:59.023Z,76.86
2017-11-14T10:05:00.906Z,77.09
2017-11-14T10:06:02.793Z,76.42
2017-11-14T10:07:04.610Z,76.61
2017-11-14T10:08:06.431Z,76.04
2017-11-14T10:09:08.317Z,76.23
2017-11-14T10:10:10.198Z,75.57
2017-11-14T10:11:12.043Z,75.47
2017-11-14T10:12:26.204Z,75.19
2017-11-14T10:13:28.087Z,74.99
2017-11-14T10:14:29.973Z,74.90
2017-11-14T10:15:31.855Z,75.19
2017-11-14T10:16:33.677Z,75.19
2017-11-14T10:17:35.590Z,74.90
2017-11-14T10:18:37.589Z,75.47
2017-11-14T10:19:39.678Z,75.38
2017-11-14T10:20:41.675Z,75.47
2017-11-14T10:21:55.830Z,75.47
2017-11-14T10:22:57.714Z,75.47
2017-11-14T10:23:59.596Z,75.95
2017-11-14T10:25:01.483Z,75.67
2017-11-14T10:26:03.303Z,75.85
2017-11-14T10:27:05.125Z,75.95
2017-11-14T10:28:07.008Z,75.28
2017-11-14T10:29:08.894Z,75.28
2017-11-14T10:30:10.856Z,75.67
2017-11-14T10:31:25.155Z,75.67
2017-11-14T10:32:27.030Z,75.67
2017-11-14T10:33:28.916Z,75.19
2017-11-14T10:34:30.801Z,75.09
2017-11-14T10:35:32.622Z,74.80
2017-11-14T10:36:34.446Z,75.23
2017-11-14T10:37:36.329Z,74.90
2017-11-14T10:38:38.213Z,75.32
2017-11-14T10:39:40.102Z,75.04
2017-11-14T10:40:54.258Z,74.94
2017-11-14T10:41:56.150Z,74.65
2017-11-14T10:42:58.026Z,74.75
2017-11-14T10:43:59.913Z,74.94
2017-11-14T10:45:01.746Z,74.18
2017-11-14T10:46:03.560Z,74.27
2017-11-14T10:47:05.447Z,74.18
2017-11-14T10:48:07.331Z,74.08
2017-11-14T10:49:09.219Z,74.46
2017-11-14T10:50:23.375Z,74.18
2017-11-14T10:51:25.258Z,73.61
2017-11-14T10:52:27.145Z,73.99
2017-11-14T10:53:29.030Z,73.70
2017-11-14T10:54:30.859Z,73.89
2017-11-14T10:55:32.673Z,74.02
2017-11-14T10:56:34.569Z,73.99
2017-11-14T10:57:36.443Z,73.93
2017-11-14T10:58:38.335Z,73.55
2017-11-14T10:59:52.490Z,73.51
2017-11-14T11:00:54.374Z,73.65
2017-11-14T11:01:56.259Z,73.51
2017-11-14T11:02:58.145Z,73.65
2017-11-14T11:03:59.973Z,73.93
2017-11-14T11:05:01.793Z,73.89
2017-11-14T11:06:03.677Z,73.55
2017-11-14T11:07:05.575Z,73.13
2017-11-14T11:08:07.454Z,72.85
2017-11-14T11:09:21.630Z,73.22
2017-11-14T11:10:23.502Z,73.13
2017-11-14T11:11:25.385Z,73.03
2017-11-14T11:12:27.266Z,72.88
2017-11-14T11:13:29.090Z,72.97
2017-11-14T11:14:30.914Z,73.17
2017-11-14T11:15:32.802Z,73.07
2017-11-14T11:16:34.697Z,73.07
2017-11-14T11:17:36.578Z,72.60
2017-11-14T11:18:50.734Z,72.21
2017-11-14T11:19:52.619Z,72.02
2017-11-14T11:20:54.506Z,72.02
2017-11-14T11:21:56.395Z,72.60
2017-11-14T11:22:58.220Z,72.50
2017-11-14T11:24:00.043Z,72.88
2017-11-14T11:25:01.926Z,72.60
2017-11-14T11:26:03.812Z,72.21
2017-11-14T11:27:05.706Z,72.12
2017-11-14T11:28:19.859Z,72.31
2017-11-14T11:29:21.745Z,72.31
2017-11-14T11:30:23.631Z,72.02
2017-11-14T11:31:25.516Z,71.73
2017-11-14T11:32:27.365Z,71.93
2017-11-14T11:33:29.189Z,71.77
2017-11-14T11:34:31.103Z,71.73
2017-11-14T11:35:33.023Z,71.36
2017-11-14T11:36:34.874Z,71.64
2017-11-14T11:37:49.070Z,71.73
2017-11-14T11:38:50.957Z,71.64
2017-11-14T11:39:52.841Z,71.80
2017-11-14T11:40:54.727Z,71.70
2017-11-14T11:41:56.555Z,71.51
2017-11-14T11:42:58.378Z,71.51
2017-11-14T11:44:00.261Z,71.80
2017-11-14T11:45:02.149Z,72.05
2017-11-14T11:46:04.029Z,72.71
2017-11-14T11:47:18.189Z,73.15
2017-11-14T11:48:20.184Z,74.10
2017-11-14T11:49:22.134Z,74.67
2017-11-14T11:50:24.018Z,75.43
2017-11-14T11:51:25.838Z,75.62
2017-11-14T11:52:27.661Z,76.10
2017-11-14T11:53:29.545Z,76.82
2017-11-14T11:54:31.429Z,77.15
2017-11-14T11:55:33.382Z,76.39
2017-11-14T11:56:47.586Z,76.29
2017-11-14T11:57:49.466Z,76.04
2017-11-14T11:58:51.350Z,75.47
2017-11-14T11:59:53.234Z,74.99
2017-11-14T12:00:55.060Z,75.09
2017-11-14T12:01:56.887Z,74.33
2017-11-14T12:02:58.813Z,73.99
2017-11-14T12:04:00.726Z,73.61
2017-11-14T12:05:02.612Z,73.51
2017-11-14T12:06:16.997Z,73.51
2017-11-14T12:07:18.881Z,73.41
2017-11-14T12:08:20.765Z,72.94
2017-11-14T12:09:22.651Z,72.75
2017-11-14T12:10:24.500Z,73.13
2017-11-14T12:11:26.975Z,72.85
2017-11-14T12:12:28.848Z,72.75
2017-11-14T12:13:30.695Z,72.94
2017-11-14T12:14:32.518Z,72.17
2017-11-14T12:15:46.764Z,73.13
2017-11-14T12:16:48.647Z,72.71
2017-11-14T12:17:50.533Z,72.81
2017-11-14T12:18:52.422Z,72.94
2017-11-14T12:19:54.294Z,73.03
2017-11-14T12:20:56.139Z,72.75
2017-11-14T12:21:58.028Z,73.13
2017-11-14T12:22:59.911Z,72.75
2017-11-14T12:24:01.799Z,72.17
2017-11-14T12:25:15.957Z,72.08
2017-11-14T12:26:17.842Z,71.80
2017-11-14T12:27:19.726Z,71.80
2017-11-14T12:28:21.617Z,71.45
2017-11-14T12:29:23.432Z,71.93
2017-11-14T12:30:25.256Z,71.83
2017-11-14T12:31:27.142Z,71.83
2017-11-14T12:32:29.032Z,72.12
2017-11-14T12:33:30.913Z,71.83
2017-11-14T12:34:45.070Z,71.64
2017-11-14T12:35:46.955Z,71.55
2017-11-14T12:36:48.839Z,72.12
2017-11-14T12:37:50.724Z,71.83
2017-11-14T12:38:52.547Z,72.50
2017-11-14T12:39:54.374Z,72.02
2017-11-14T12:40:56.257Z,72.31
2017-11-14T12:41:58.145Z,71.93
2017-11-14T12:43:00.028Z,72.02
2017-11-14T12:44:14.184Z,72.02
2017-11-14T12:45:16.071Z,72.02
2017-11-14T12:46:17.957Z,71.89
2017-11-14T12:47:19.841Z,72.12
2017-11-14T12:48:21.680Z,72.50
2017-11-14T12:49:23.494Z,72.41
2017-11-14T12:50:25.381Z,72.12
2017-11-14T12:51:27.264Z,72.31
2017-11-14T12:52:29.230Z,72.02
2017-11-14T12:53:43.412Z,72.21
2017-11-14T12:54:45.297Z,72.02
2017-11-14T12:55:47.182Z,72.17
2017-11-14T12:56:49.069Z,72.75
2017-11-14T12:57:50.893Z,72.94
2017-11-14T12:58:52.717Z,72.94
2017-11-14T12:59:54.599Z,72.94
2017-11-14T13:00:56.485Z,73.03
2017-11-14T13:01:58.358Z,73.51
2017-11-14T13:03:12.536Z,73.61
2017-11-14T13:04:14.428Z,73.80
2017-11-14T13:05:16.309Z,74.18
2017-11-14T13:06:18.193Z,74.37
2017-11-14T13:07:20.020Z,74.18
2017-11-14T13:08:21.833Z,75.13
2017-11-14T13:09:23.717Z,74.62
2017-11-14T13:10:25.614Z,74.52
2017-11-14T13:11:27.488Z,75.09
2017-11-14T13:12:41.678Z,75.28
2017-11-14T13:13:43.565Z,75.28
2017-11-14T13:14:45.448Z,74.99
2017-11-14T13:15:47.330Z,75.09
2017-11-14T13:16:49.150Z,75.04
2017-11-14T13:17:50.973Z,75.04
2017-11-14T13:18:52.791Z,75.09
2017-11-14T13:19:54.615Z,74.80
2017-11-14T13:20:56.440Z,75.38
2017-11-14T13:22:10.603Z,74.71
2017-11-14T13:23:12.473Z,74.99
2017-11-14T13:24:14.356Z,75.09
2017-11-14T13:25:16.236Z,74.90
2017-11-14T13:26:18.074Z,75.09
2017-11-14T13:27:19.881Z,75.09
2017-11-14T13:28:21.765Z,75.47
2017-11-14T13:29:23.653Z,75.95
2017-11-14T13:30:25.533Z,75.95
2017-11-14T13:31:39.740Z,76.23
2017-11-14T13:32:41.623Z,76.04
2017-11-14T13:33:43.504Z,75.85